Hathorne, MA (01937)

2:08 PM EST on January 27, 2015 (GMT -0500)
APRSWXNET Danvers MA US | Change Station
CLOSE
Current Station
Personal Weather Station
Location: Danvers, MA
Elevation: 42 ft
Nearby Weather Stations

Elev 42 ft 42.55 °N, 70.95 °W | Updated 35 minutes ago

Snow
Snow
14 °F
Feels Like 7 °F
N
4
Wind Variable Wind from North
Gusts 7.0 mph

Today
High -- | Low -- °F
--% Chance of Precip.
Yesterday
High -- | Low -- °F
Precip. -- in
7:03 AM 4:50 PM
First Quarter, 56% visible
Pressure 29.47 in
Visibility 0.5 miles
Clouds
Windchill 7 °F
Dew Point 8 °F
Humidity 77%
Rainfall -999.00 in
Snow Depth Not available.
UV Not available.
Pollen .10 out of 12
Air Quality Not available.
Flu Activity Not available.
METAR KBVY 271853Z AUTO 34013G23KT 1/2SM HZ VV011 M09/M12 A2948 RMK AO2 PK WND 35027/1816 SLP980 P0001 T10941122 PWINO FZRANO $

More Conditions Fewer Conditions

Pressure 29.47 in
Visibility 0.5 miles
Clouds
Windchill 7 °F
Dew Point 8 °F
Humidity 77%
Rainfall -999.00 in
Snow Depth Not available.
UV Not available.
Pollen .10 out of 12
Air Quality Not available.
Flu Activity Not available.
METAR KBVY 271853Z AUTO 34013G23KT 1/2SM HZ VV011 M09/M12 A2948 RMK AO2 PK WND 35027/1816 SLP980 P0001 T10941122 PWINO FZRANO $

More Conditions Fewer Conditions

10-Day Weather Forecast

Almanac

Astronomy

Jan. 27, 2015 Rise Set
Actual Time
Civil Twilight
Nautical Twilight
Astronomical Twilight
Moon
Length of Visible Light
Length of Day
Tomorrow will be .
, % of the Moon is Illuminated

Today's Extremes

State Highs State Lows

Community

WunderPhotos

Upload Photos

1,790,783 photos uploaded!

WunderBlogs® & News

Nearby

Air Quality

  Air Quality AQ Index Pollutant
Not available.

Snow Depth

Station Depth Elevation

Earthquake Activity

City Distance Mag. Time & Date
Minimum magnitude displayed is 2.5.

Coastal Water Temperatures

Place Temperature

Nearby Weather Stations